Time;durP1;ratioP1;P1;durP2;ratioP2;P2;SDS_P1;SDS_P2;PMS_P1;PMS_P2;Temp;Humidity;BMP_temperature;BMP_pressure;BME280_temperature;BME280_humidity;BME280_pressure;Samples;Min_cycle;Max_cycle;Signal;HPM_P1;HPM_P2
2021/11/14 00:02:20;;;;;;;24.10;9.90;;;;;;;;;;5032901;28;20024;-88
2021/11/14 00:04:46;;;;;;;19.73;9.93;;;;;;;;;;5066561;28;20432;-87
2021/11/14 00:07:13;;;;;;;20.77;11.73;;;;;;;;;;5032634;28;20025;-87
2021/11/14 00:09:38;;;;;;;24.80;10.95;;;;;;;;;;5066130;28;20028;-87
2021/11/14 00:12:03;;;;;;;19.02;9.68;;;;;;;;;;5032943;28;20022;-88
2021/11/14 00:14:28;;;;;;;20.08;10.10;;;;;;;;;;5065983;28;20021;-87
2021/11/14 00:16:54;;;;;;;17.90;10.40;;;;;;;;;;5032732;28;20109;-87
2021/11/14 00:19:19;;;;;;;24.75;12.38;;;;;;;;;;5032819;28;20029;-87
2021/11/14 00:21:44;;;;;;;25.73;12.88;;;;;;;;;;5032860;28;20029;-87
2021/11/14 00:24:11;;;;;;;24.90;12.18;;;;;;;;;;5033727;28;20021;-87
2021/11/14 00:26:36;;;;;;;18.52;10.00;;;;;;;;;;5032807;28;20119;-87
2021/11/14 00:29:01;;;;;;;22.10;10.20;;;;;;;;;;5031931;28;20465;-87
2021/11/14 00:31:27;;;;;;;22.02;11.35;;;;;;;;;;5032479;28;20017;-87
2021/11/14 00:33:52;;;;;;;19.48;10.70;;;;;;;;;;5032523;28;20024;-87
2021/11/14 00:36:19;;;;;;;18.83;11.77;;;;;;;;;;5032669;28;20040;-87
2021/11/14 00:38:45;;;;;;;17.10;10.60;;;;;;;;;;5032516;28;20025;-88
2021/11/14 00:41:10;;;;;;;23.00;11.73;;;;;;;;;;5032058;28;20029;-87
2021/11/14 00:43:36;;;;;;;20.38;10.93;;;;;;;;;;5033308;28;20021;-87
2021/11/14 00:46:02;;;;;;;23.88;11.88;;;;;;;;;;5032988;28;20108;-87
2021/11/14 00:48:28;;;;;;;25.27;14.55;;;;;;;;;;5032062;28;20087;-87
2021/11/14 00:50:53;;;;;;;30.02;12.57;;;;;;;;;;5032268;28;20017;-87
2021/11/14 00:53:19;;;;;;;23.27;11.90;;;;;;;;;;5031853;28;20405;-87
2021/11/14 00:55:45;;;;;;;21.17;12.68;;;;;;;;;;5032099;28;20021;-87
2021/11/14 00:58:10;;;;;;;27.25;14.32;;;;;;;;;;5032053;28;20127;-87
2021/11/14 01:00:36;;;;;;;30.23;12.90;;;;;;;;;;5032069;28;20469;-87
2021/11/14 01:03:02;;;;;;;29.13;15.60;;;;;;;;;;5031943;28;20021;-87
2021/11/14 01:05:29;;;;;;;39.47;16.42;;;;;;;;;;5031482;28;20028;-87
2021/11/14 01:07:55;;;;;;;25.30;14.63;;;;;;;;;;5032072;28;20021;-87
2021/11/14 01:10:22;;;;;;;26.13;14.70;;;;;;;;;;5033122;28;20172;-87
2021/11/14 01:12:47;;;;;;;36.15;15.60;;;;;;;;;;5032555;28;20010;-87
2021/11/14 01:15:13;;;;;;;31.10;15.50;;;;;;;;;;5032960;28;20488;-87
2021/11/14 01:17:39;;;;;;;26.40;14.50;;;;;;;;;;5031911;28;20009;-87
2021/11/14 01:20:06;;;;;;;32.83;17.27;;;;;;;;;;5031527;28;20028;-87
2021/11/14 01:22:32;;;;;;;32.85;16.55;;;;;;;;;;5032890;28;20469;-87
2021/11/14 01:24:57;;;;;;;35.05;16.98;;;;;;;;;;5031717;28;20113;-87
2021/11/14 01:27:22;;;;;;;30.00;17.27;;;;;;;;;;5031652;28;20049;-88
2021/11/14 01:29:47;;;;;;;34.10;16.40;;;;;;;;;;5031427;28;20113;-87
2021/11/14 01:32:12;;;;;;;32.03;16.27;;;;;;;;;;5032293;28;20056;-87
2021/11/14 01:34:38;;;;;;;30.00;16.65;;;;;;;;;;5045172;28;20045;-87
2021/11/14 01:37:03;;;;;;;30.85;15.95;;;;;;;;;;5031548;28;20568;-87
2021/11/14 01:39:28;;;;;;;27.83;15.65;;;;;;;;;;5032434;28;20013;-87
2021/11/14 01:41:54;;;;;;;33.83;17.23;;;;;;;;;;5031250;28;20389;-87
2021/11/14 01:44:19;;;;;;;34.00;16.63;;;;;;;;;;5032615;28;20021;-87
2021/11/14 01:46:45;;;;;;;29.25;15.48;;;;;;;;;;5031662;28;20049;-87
2021/11/14 01:49:10;;;;;;;33.22;16.95;;;;;;;;;;5032865;28;20074;-88
2021/11/14 01:51:35;;;;;;;36.72;16.75;;;;;;;;;;5031273;28;20010;-87
2021/11/14 01:54:01;;;;;;;32.58;16.63;;;;;;;;;;5031407;28;20028;-87
2021/11/14 01:56:26;;;;;;;34.58;16.80;;;;;;;;;;5031478;28;20019;-87
2021/11/14 01:58:52;;;;;;;32.90;17.27;;;;;;;;;;5031615;28;20049;-87
2021/11/14 02:01:22;;;;;;;30.75;15.98;;;;;;;;;;5032965;28;20033;-87
2021/11/14 02:03:50;;;;;;;32.60;15.73;;;;;;;;;;5031313;28;20052;-88
2021/11/14 02:06:16;;;;;;;30.08;15.73;;;;;;;;;;5031074;28;20588;-87
2021/11/14 02:08:42;;;;;;;29.00;15.05;;;;;;;;;;5032341;28;20072;-87
2021/11/14 02:11:08;;;;;;;30.52;14.10;;;;;;;;;;5031621;28;20021;-87
2021/11/14 02:13:33;;;;;;;26.65;14.77;;;;;;;;;;5031395;28;20023;-87
2021/11/14 02:15:58;;;;;;;29.92;15.07;;;;;;;;;;5031186;28;20466;-88
2021/11/14 02:18:24;;;;;;;33.10;15.57;;;;;;;;;;5031212;28;20025;-87
2021/11/14 02:20:50;;;;;;;32.88;15.65;;;;;;;;;;5030914;28;20032;-88
2021/11/14 02:23:16;;;;;;;30.15;14.45;;;;;;;;;;5031335;28;20108;-87
2021/11/14 02:25:42;;;;;;;36.97;15.25;;;;;;;;;;5034143;28;20024;-87
2021/11/14 02:28:07;;;;;;;31.85;14.60;;;;;;;;;;5034918;28;20025;-88
2021/11/14 02:30:33;;;;;;;34.30;16.00;;;;;;;;;;5034682;28;20112;-87
2021/11/14 02:32:58;;;;;;;31.38;15.88;;;;;;;;;;5035002;28;20009;-88
2021/11/14 02:35:24;;;;;;;33.83;15.40;;;;;;;;;;5034988;28;20514;-87
2021/11/14 02:37:50;;;;;;;31.65;16.15;;;;;;;;;;5034422;28;20122;-87
2021/11/14 02:40:16;;;;;;;35.50;15.57;;;;;;;;;;5034914;28;20069;-88
2021/11/14 02:42:42;;;;;;;31.15;15.18;;;;;;;;;;5035567;28;20079;-87
2021/11/14 02:45:08;;;;;;;38.05;16.92;;;;;;;;;;5034667;28;20025;-87
2021/11/14 02:47:34;;;;;;;29.95;15.38;;;;;;;;;;5034491;28;20044;-88
2021/11/14 02:49:59;;;;;;;31.50;15.82;;;;;;;;;;5034211;28;20056;-87
2021/11/14 02:52:24;;;;;;;31.45;16.00;;;;;;;;;;5034449;28;20059;-88
2021/11/14 02:54:49;;;;;;;31.33;13.82;;;;;;;;;;5034448;28;20461;-87
2021/11/14 02:57:15;;;;;;;32.05;15.07;;;;;;;;;;5035699;28;20616;-88
2021/11/14 02:59:40;;;;;;;31.85;14.85;;;;;;;;;;5028157;28;20033;-88
2021/11/14 03:02:05;;;;;;;29.80;14.35;;;;;;;;;;5034231;28;20026;-88
2021/11/14 03:04:31;;;;;;;40.20;13.55;;;;;;;;;;5034180;28;20492;-88
2021/11/14 03:06:58;;;;;;;34.90;14.80;;;;;;;;;;5033812;28;20032;-87
2021/11/14 03:09:25;;;;;;;31.67;14.43;;;;;;;;;;5034089;28;20021;-87
2021/11/14 03:11:51;;;;;;;31.70;15.35;;;;;;;;;;5034346;28;20108;-87
2021/11/14 03:14:16;;;;;;;30.90;14.45;;;;;;;;;;5033776;28;20025;-88
2021/11/14 03:16:42;;;;;;;31.70;15.07;;;;;;;;;;5034856;28;20022;-87
2021/11/14 03:19:07;;;;;;;32.70;15.38;;;;;;;;;;5035419;28;20026;-88
2021/11/14 03:21:33;;;;;;;29.48;13.25;;;;;;;;;;5034036;28;20079;-87
2021/11/14 03:23:58;;;;;;;31.80;13.52;;;;;;;;;;5033925;28;20025;-87
2021/11/14 03:26:24;;;;;;;30.33;13.48;;;;;;;;;;5030504;28;20014;-87
2021/11/14 03:28:49;;;;;;;29.10;14.68;;;;;;;;;;5014939;28;20030;-88
2021/11/14 03:31:14;;;;;;;28.90;13.50;;;;;;;;;;5045210;28;20021;-87
2021/11/14 03:33:40;;;;;;;26.60;13.55;;;;;;;;;;5033513;28;20024;-88
2021/11/14 03:36:13;;;;;;;35.85;15.35;;;;;;;;;;5033190;28;20021;-88
2021/11/14 03:38:43;;;;;;;30.30;14.02;;;;;;;;;;5033985;28;20022;-87
2021/11/14 03:41:10;;;;;;;35.65;15.00;;;;;;;;;;5033639;28;20017;-87
2021/11/14 03:43:36;;;;;;;30.05;14.77;;;;;;;;;;5033243;28;20021;-87
2021/11/14 03:46:01;;;;;;;35.30;15.30;;;;;;;;;;5033276;28;20026;-88
2021/11/14 03:48:27;;;;;;;40.78;15.27;;;;;;;;;;5033363;28;20385;-87
2021/11/14 03:50:52;;;;;;;33.55;14.20;;;;;;;;;;5033336;28;20108;-88
2021/11/14 03:53:17;;;;;;;34.22;14.95;;;;;;;;;;5033428;28;20029;-87
2021/11/14 03:55:43;;;;;;;31.17;13.70;;;;;;;;;;5034696;28;20421;-88
2021/11/14 03:58:08;;;;;;;36.20;13.23;;;;;;;;;;5032596;28;20059;-87
2021/11/14 04:00:36;;;;;;;28.77;13.32;;;;;;;;;;5031127;28;20022;-88
2021/11/14 04:03:01;;;;;;;32.58;14.32;;;;;;;;;;5031558;28;20029;-87
2021/11/14 04:05:29;;;;;;;31.77;14.00;;;;;;;;;;5031597;28;20029;-87
2021/11/14 04:07:55;;;;;;;34.30;14.02;;;;;;;;;;5030970;28;20448;-87
2021/11/14 04:10:20;;;;;;;38.45;15.57;;;;;;;;;;5031272;28;20112;-87
2021/11/14 04:12:46;;;;;;;36.55;15.10;;;;;;;;;;5031391;28;20014;-87
2021/11/14 04:15:12;;;;;;;33.50;15.02;;;;;;;;;;5031565;28;20049;-87
2021/11/14 04:17:37;;;;;;;37.80;15.38;;;;;;;;;;5031260;28;20436;-87
2021/11/14 04:20:04;;;;;;;31.23;14.00;;;;;;;;;;5032291;28;20056;-87
2021/11/14 04:22:29;;;;;;;33.92;15.00;;;;;;;;;;5032559;28;20052;-88
2021/11/14 04:24:55;;;;;;;33.30;14.75;;;;;;;;;;5032715;28;20040;-87
2021/11/14 04:27:20;;;;;;;37.58;14.80;;;;;;;;;;5032357;28;20022;-87
2021/11/14 04:29:45;;;;;;;40.92;15.82;;;;;;;;;;5032375;28;20050;-88
2021/11/14 04:32:10;;;;;;;35.58;13.20;;;;;;;;;;5032606;28;20056;-87
2021/11/14 04:34:35;;;;;;;34.42;13.30;;;;;;;;;;5032651;28;20024;-88
2021/11/14 04:37:01;;;;;;;33.45;12.98;;;;;;;;;;5032196;28;20028;-87
2021/11/14 04:39:26;;;;;;;33.45;14.02;;;;;;;;;;5032223;28;20022;-88
2021/11/14 04:41:51;;;;;;;35.20;12.80;;;;;;;;;;5032566;28;20075;-88
2021/11/14 04:44:16;;;;;;;38.38;15.00;;;;;;;;;;5032334;28;20049;-88
2021/11/14 04:46:42;;;;;;;36.38;14.32;;;;;;;;;;5032361;28;20021;-88
2021/11/14 04:49:07;;;;;;;34.95;13.77;;;;;;;;;;5031363;28;20082;-88
2021/11/14 04:51:32;;;;;;;40.53;14.38;;;;;;;;;;5032121;28;20434;-88
2021/11/14 04:53:57;;;;;;;36.42;14.05;;;;;;;;;;5032020;28;20028;-88
2021/11/14 04:56:22;;;;;;;34.78;13.18;;;;;;;;;;5033350;28;20017;-88
2021/11/14 04:58:48;;;;;;;38.17;13.65;;;;;;;;;;5032145;28;20018;-88
2021/11/14 05:01:13;;;;;;;38.97;15.35;;;;;;;;;;5032033;28;20539;-88
2021/11/14 05:03:38;;;;;;;28.42;13.07;;;;;;;;;;5033007;28;20028;-88
2021/11/14 05:06:08;;;;;;;37.45;14.50;;;;;;;;;;5033226;28;20029;-88
2021/11/14 05:08:33;;;;;;;31.90;13.35;;;;;;;;;;5033034;28;20074;-88
2021/11/14 05:10:58;;;;;;;37.85;14.52;;;;;;;;;;5031888;28;20021;-88
2021/11/14 05:13:24;;;;;;;35.38;14.13;;;;;;;;;;5031751;28;20385;-88
2021/11/14 05:15:49;;;;;;;37.97;15.07;;;;;;;;;;5031431;28;20028;-87
2021/11/14 05:18:14;;;;;;;36.38;13.82;;;;;;;;;;5031889;28;20033;-88
2021/11/14 05:20:40;;;;;;;32.40;12.00;;;;;;;;;;5031840;28;20017;-88
2021/11/14 05:23:05;;;;;;;36.08;14.82;;;;;;;;;;5032134;28;20654;-88
2021/11/14 05:25:30;;;;;;;41.40;14.88;;;;;;;;;;5031688;28;20408;-88
2021/11/14 05:27:56;;;;;;;31.60;14.55;;;;;;;;;;5032776;28;20021;-87
2021/11/14 05:30:21;;;;;;;36.00;14.32;;;;;;;;;;5031650;28;20044;-88
2021/11/14 05:32:46;;;;;;;32.47;13.43;;;;;;;;;;5031611;28;20021;-88
2021/11/14 05:35:12;;;;;;;44.10;15.68;;;;;;;;;;5031945;28;20037;-87
2021/11/14 05:37:37;;;;;;;39.83;14.55;;;;;;;;;;5031316;28;20018;-88
2021/11/14 05:40:03;;;;;;;34.38;14.60;;;;;;;;;;5032464;28;20045;-88
2021/11/14 05:42:28;;;;;;;44.58;17.42;;;;;;;;;;5031454;28;20022;-88
2021/11/14 05:44:54;;;;;;;48.08;15.40;;;;;;;;;;5031380;28;20462;-88
2021/11/14 05:47:19;;;;;;;37.55;15.32;;;;;;;;;;5031681;28;20385;-88
2021/11/14 05:49:44;;;;;;;45.55;17.08;;;;;;;;;;5031392;28;20104;-88
2021/11/14 05:52:09;;;;;;;45.22;16.13;;;;;;;;;;5032976;28;20425;-88
2021/11/14 05:54:35;;;;;;;46.80;16.48;;;;;;;;;;5031487;28;20017;-88
2021/11/14 05:57:00;;;;;;;51.55;15.80;;;;;;;;;;5031240;28;20026;-88
2021/11/14 06:02:14;;;;;;;41.92;15.38;;;;;;;;;;5036857;28;20045;-88
2021/11/14 06:07:19;;;;;;;47.38;16.45;;;;;;;;;;5036506;28;20045;-88
2021/11/14 06:09:44;;;;;;;47.80;17.55;;;;;;;;;;5035239;28;20461;-88
2021/11/14 06:12:10;;;;;;;53.67;19.85;;;;;;;;;;5034865;28;20033;-87
2021/11/14 06:14:35;;;;;;;40.75;15.32;;;;;;;;;;5036375;28;20010;-88
2021/11/14 06:17:00;;;;;;;55.20;19.45;;;;;;;;;;5035261;28;20021;-88
2021/11/14 06:19:26;;;;;;;48.88;17.67;;;;;;;;;;5034925;28;20534;-88
2021/11/14 06:21:51;;;;;;;49.53;19.15;;;;;;;;;;5068178;28;20029;-87
2021/11/14 06:24:16;;;;;;;61.80;20.27;;;;;;;;;;5034990;28;20056;-88
2021/11/14 06:26:43;;;;;;;56.30;19.48;;;;;;;;;;5035044;28;20018;-87
2021/11/14 06:29:09;;;;;;;54.90;19.95;;;;;;;;;;5035775;28;20045;-88
2021/11/14 06:31:34;;;;;;;48.85;16.65;;;;;;;;;;5034758;28;20017;-87
2021/11/14 06:33:59;;;;;;;61.78;18.70;;;;;;;;;;5034920;28;20053;-88
2021/11/14 06:36:24;;;;;;;63.50;20.92;;;;;;;;;;5034576;28;20033;-88
2021/11/14 06:38:52;;;;;;;52.58;18.60;;;;;;;;;;5034897;28;20021;-87
2021/11/14 06:41:18;;;;;;;51.28;19.48;;;;;;;;;;5034450;28;20025;-87
2021/11/14 06:43:43;;;;;;;57.72;19.60;;;;;;;;;;5035909;28;20093;-88
2021/11/14 06:46:09;;;;;;;57.53;20.05;;;;;;;;;;5033813;28;20473;-87
2021/11/14 06:48:34;;;;;;;54.20;19.23;;;;;;;;;;5034216;28;20032;-87
2021/11/14 06:51:00;;;;;;;58.78;19.20;;;;;;;;;;5034630;28;20021;-88
2021/11/14 06:53:25;;;;;;;56.83;19.95;;;;;;;;;;5034477;28;20024;-88
2021/11/14 06:55:51;;;;;;;53.72;19.63;;;;;;;;;;5034217;28;20086;-88
2021/11/14 06:58:16;;;;;;;43.63;14.98;;;;;;;;;;5035430;28;20041;-88
2021/11/14 07:00:42;;;;;;;53.22;18.60;;;;;;;;;;5035391;28;20536;-87
2021/11/14 07:03:08;;;;;;;52.70;18.98;;;;;;;;;;5033890;28;20130;-87
2021/11/14 07:05:33;;;;;;;58.22;20.35;;;;;;;;;;5035234;28;20045;-88
2021/11/14 07:07:58;;;;;;;56.83;19.13;;;;;;;;;;5035317;28;20014;-88
2021/11/14 07:10:25;;;;;;;56.08;19.50;;;;;;;;;;5034555;28;20077;-88
2021/11/14 07:12:53;;;;;;;62.85;21.00;;;;;;;;;;5033695;28;20057;-88
2021/11/14 07:15:19;;;;;;;53.03;18.58;;;;;;;;;;5034289;28;20033;-88
2021/11/14 07:17:44;;;;;;;56.38;20.10;;;;;;;;;;5034012;28;20013;-88
2021/11/14 07:20:10;;;;;;;53.97;19.27;;;;;;;;;;5034009;28;20051;-88
2021/11/14 07:22:35;;;;;;;58.38;19.77;;;;;;;;;;5033479;28;20362;-87
2021/11/14 07:25:01;;;;;;;56.72;18.88;;;;;;;;;;5033900;28;20033;-88
2021/11/14 07:27:26;;;;;;;53.67;18.13;;;;;;;;;;5034707;28;20037;-87
2021/11/14 07:29:51;;;;;;;54.63;20.85;;;;;;;;;;5033682;28;20029;-88
2021/11/14 07:32:18;;;;;;;56.08;19.70;;;;;;;;;;5033767;28;20026;-88
2021/11/14 07:34:44;;;;;;;53.30;20.27;;;;;;;;;;5033371;28;20021;-88
2021/11/14 07:37:09;;;;;;;41.47;15.55;;;;;;;;;;5033456;28;20024;-88
2021/11/14 07:39:34;;;;;;;57.03;19.08;;;;;;;;;;5032806;28;20087;-88
2021/11/14 07:41:59;;;;;;;59.30;21.48;;;;;;;;;;5034763;28;20116;-87
2021/11/14 07:44:25;;;;;;;47.47;16.33;;;;;;;;;;5033494;28;20615;-88
2021/11/14 07:46:50;;;;;;;55.17;17.90;;;;;;;;;;5035953;28;20021;-88
2021/11/14 07:49:15;;;;;;;60.05;20.17;;;;;;;;;;5033210;28;20064;-88
2021/11/14 07:51:41;;;;;;;63.72;21.50;;;;;;;;;;5033055;28;20017;-87
2021/11/14 07:54:06;;;;;;;61.67;21.17;;;;;;;;;;5033460;28;20113;-88
2021/11/14 07:56:31;;;;;;;65.38;22.67;;;;;;;;;;5033159;28;20022;-87
2021/11/14 07:58:57;;;;;;;59.08;20.83;;;;;;;;;;5033024;28;20041;-88
2021/11/14 08:01:22;;;;;;;54.75;20.63;;;;;;;;;;5033221;28;20441;-88
2021/11/14 08:03:47;;;;;;;62.65;21.40;;;;;;;;;;5032943;28;20449;-87
2021/11/14 08:06:13;;;;;;;65.65;22.92;;;;;;;;;;5032517;28;20366;-87
2021/11/14 08:08:38;;;;;;;52.70;18.67;;;;;;;;;;5032401;28;20389;-87
2021/11/14 08:11:03;;;;;;;68.97;22.65;;;;;;;;;;5033920;28;20025;-87
2021/11/14 08:13:29;;;;;;;64.57;21.90;;;;;;;;;;5033029;28;20022;-87
2021/11/14 08:15:54;;;;;;;59.35;20.65;;;;;;;;;;5033836;28;20063;-87
2021/11/14 08:18:19;;;;;;;64.63;22.35;;;;;;;;;;5032936;28;20468;-87
2021/11/14 08:20:45;;;;;;;55.20;19.65;;;;;;;;;;5032583;28;20392;-87
2021/11/14 08:23:10;;;;;;;52.72;19.02;;;;;;;;;;5032357;28;20100;-88
2021/11/14 08:25:36;;;;;;;58.83;20.55;;;;;;;;;;5034047;28;20739;-87
2021/11/14 08:28:01;;;;;;;60.13;21.35;;;;;;;;;;5032372;28;20208;-87
2021/11/14 08:30:27;;;;;;;55.50;21.10;;;;;;;;;;5032437;28;20032;-88
2021/11/14 08:32:52;;;;;;;56.40;20.20;;;;;;;;;;5032561;28;20453;-88
2021/11/14 08:35:18;;;;;;;47.78;17.73;;;;;;;;;;5032209;28;20071;-88
2021/11/14 08:37:44;;;;;;;56.53;19.95;;;;;;;;;;5032271;28;20056;-87
2021/11/14 08:40:10;;;;;;;60.13;20.33;;;;;;;;;;5032234;28;20097;-87
2021/11/14 08:42:36;;;;;;;52.45;19.10;;;;;;;;;;5033710;28;20388;-87
2021/11/14 08:45:02;;;;;;;45.47;17.20;;;;;;;;;;5032131;28;20476;-88
2021/11/14 08:47:27;;;;;;;50.72;20.33;;;;;;;;;;5032312;28;20112;-87
2021/11/14 08:49:53;;;;;;;60.65;19.10;;;;;;;;;;5033049;28;20100;-87
2021/11/14 08:52:18;;;;;;;50.30;18.67;;;;;;;;;;5033635;28;20052;-87
2021/11/14 08:54:43;;;;;;;49.58;18.85;;;;;;;;;;5032033;28;20048;-87
2021/11/14 08:57:09;;;;;;;50.67;18.60;;;;;;;;;;5033207;28;20354;-87
2021/11/14 08:59:34;;;;;;;58.15;20.50;;;;;;;;;;5033514;28;20487;-88
2021/11/14 09:02:02;;;;;;;50.20;17.60;;;;;;;;;;5032069;28;20071;-87
2021/11/14 09:04:28;;;;;;;55.03;20.50;;;;;;;;;;5033045;28;20033;-88
2021/11/14 09:06:55;;;;;;;54.30;20.65;;;;;;;;;;5031644;28;20495;-88
2021/11/14 09:09:20;;;;;;;47.88;19.92;;;;;;;;;;5031843;28;20021;-88
2021/11/14 09:11:46;;;;;;;55.58;19.27;;;;;;;;;;5033343;28;20039;-87
2021/11/14 09:14:11;;;;;;;53.47;20.70;;;;;;;;;;5033081;28;20032;-87
2021/11/14 09:16:36;;;;;;;49.20;18.77;;;;;;;;;;5033142;28;20017;-87
2021/11/14 09:19:03;;;;;;;57.70;20.75;;;;;;;;;;5031788;28;20432;-87
2021/11/14 09:21:28;;;;;;;58.45;21.35;;;;;;;;;;5033242;28;20033;-88
2021/11/14 09:23:53;;;;;;;58.67;21.08;;;;;;;;;;5019078;28;20053;-88
2021/11/14 09:26:18;;;;;;;51.58;19.95;;;;;;;;;;5064349;28;20021;-89
2021/11/14 09:28:44;;;;;;;53.20;21.27;;;;;;;;;;5031720;28;20026;-88
2021/11/14 09:31:10;;;;;;;47.67;19.60;;;;;;;;;;5032344;28;20043;-88
2021/11/14 09:33:36;;;;;;;54.92;21.88;;;;;;;;;;5031181;28;20022;-88
2021/11/14 09:36:02;;;;;;;57.45;21.33;;;;;;;;;;5029968;28;20492;-89
2021/11/14 09:38:27;;;;;;;51.80;19.25;;;;;;;;;;5031851;28;20072;-89
2021/11/14 09:40:57;;;;;;;54.83;21.92;;;;;;;;;;5030588;28;20072;-89
2021/11/14 09:43:22;;;;;;;56.03;22.40;;;;;;;;;;5029918;28;20025;-88
2021/11/14 09:45:49;;;;;;;56.25;22.90;;;;;;;;;;5029451;28;20388;-89
2021/11/14 09:48:15;;;;;;;50.88;20.13;;;;;;;;;;5029764;28;20030;-89
2021/11/14 09:50:40;;;;;;;47.63;19.95;;;;;;;;;;5031411;28;20804;-88
2021/11/14 09:53:05;;;;;;;43.65;18.52;;;;;;;;;;5032519;28;20472;-87
2021/11/14 09:55:35;;;;;;;48.13;19.38;;;;;;;;;;5031843;28;20112;-88
2021/11/14 09:58:00;;;;;;;46.38;18.85;;;;;;;;;;5031465;28;20022;-88
2021/11/14 10:00:27;;;;;;;43.88;18.60;;;;;;;;;;5031226;28;20014;-89
2021/11/14 10:02:56;;;;;;;45.22;17.92;;;;;;;;;;5031598;28;20045;-88
2021/11/14 10:05:21;;;;;;;45.80;20.02;;;;;;;;;;5030717;28;20017;-88
2021/11/14 10:07:54;;;;;;;41.40;17.48;;;;;;;;;;5047040;28;20117;-88
2021/11/14 10:10:22;;;;;;;47.33;19.42;;;;;;;;;;5032082;28;20128;-88
2021/11/14 10:12:48;;;;;;;50.78;22.20;;;;;;;;;;5032045;28;20017;-88
2021/11/14 10:15:13;;;;;;;52.45;20.65;;;;;;;;;;5031249;28;20017;-88
2021/11/14 10:17:40;;;;;;;46.80;19.85;;;;;;;;;;5032407;28;20475;-88
2021/11/14 10:20:05;;;;;;;46.20;19.55;;;;;;;;;;5030693;28;20026;-88
2021/11/14 10:22:31;;;;;;;47.05;20.88;;;;;;;;;;5030986;28;20056;-88
2021/11/14 10:24:57;;;;;;;44.50;19.58;;;;;;;;;;5031053;28;20013;-88
2021/11/14 10:27:24;;;;;;;43.53;17.70;;;;;;;;;;5032242;28;20060;-87
2021/11/14 10:29:50;;;;;;;37.08;16.00;;;;;;;;;;5017074;28;20070;-88
2021/11/14 10:32:16;;;;;;;51.10;17.73;;;;;;;;;;5030771;28;20099;-88
2021/11/14 10:34:49;;;;;;;44.45;17.40;;;;;;;;;;5030616;28;20022;-88
2021/11/14 10:37:14;;;;;;;60.33;23.60;;;;;;;;;;5031131;28;20014;-90
2021/11/14 10:39:40;;;;;;;65.97;24.20;;;;;;;;;;5031327;28;20028;-90
2021/11/14 10:42:13;;;;;;;65.82;24.98;;;;;;;;;;5030657;28;20029;-88
2021/11/14 10:44:45;;;;;;;67.50;25.67;;;;;;;;;;5030900;28;20025;-88
2021/11/14 10:47:10;;;;;;;63.97;24.85;;;;;;;;;;5024829;28;20477;-89
2021/11/14 10:49:36;;;;;;;59.92;23.95;;;;;;;;;;5035790;28;20114;-88
2021/11/14 10:52:01;;;;;;;55.65;22.60;;;;;;;;;;5034071;28;20029;-87
2021/11/14 10:54:26;;;;;;;52.90;22.20;;;;;;;;;;5034104;28;20381;-88
2021/11/14 10:56:59;;;;;;;61.10;22.80;;;;;;;;;;5034625;28;20013;-87
2021/11/14 10:59:24;;;;;;;57.90;23.70;;;;;;;;;;5034233;28;20017;-87
2021/11/14 11:01:51;;;;;;;58.28;22.92;;;;;;;;;;5034083;28;20048;-87
2021/11/14 11:04:22;;;;;;;56.30;22.38;;;;;;;;;;5033916;28;20029;-87
2021/11/14 11:06:52;;;;;;;55.72;21.33;;;;;;;;;;5033722;28;20025;-87
2021/11/14 11:09:17;;;;;;;54.08;20.92;;;;;;;;;;5034753;28;20033;-88
2021/11/14 11:11:43;;;;;;;52.92;21.27;;;;;;;;;;5032460;28;20025;-87
2021/11/14 11:14:09;;;;;;;52.85;19.30;;;;;;;;;;5034812;28;20037;-87
2021/11/14 11:16:34;;;;;;;49.38;20.20;;;;;;;;;;5033928;28;20538;-87
2021/11/14 11:19:07;;;;;;;52.83;19.38;;;;;;;;;;5033568;28;20112;-86
2021/11/14 11:21:52;;;;;;;54.20;20.65;;;;;;;;;;5033557;28;20469;-87
2021/11/14 11:24:18;;;;;;;48.90;19.40;;;;;;;;;;5034210;28;20037;-87
2021/11/14 11:27:06;;;;;;;48.38;19.85;;;;;;;;;;5033734;28;20022;-87
2021/11/14 11:29:37;;;;;;;45.22;18.92;;;;;;;;;;5025519;28;20022;-87
2021/11/14 11:32:03;;;;;;;47.85;18.77;;;;;;;;;;5033743;28;20018;-87
2021/11/14 11:34:28;;;;;;;46.05;18.35;;;;;;;;;;5033438;28;20021;-87
2021/11/14 11:36:54;;;;;;;42.47;17.63;;;;;;;;;;5033027;28;20013;-87
2021/11/14 11:39:20;;;;;;;43.30;17.90;;;;;;;;;;5033393;28;20156;-87
2021/11/14 11:41:46;;;;;;;47.20;18.92;;;;;;;;;;5033568;28;20100;-87
2021/11/14 11:44:18;;;;;;;47.90;18.13;;;;;;;;;;5033189;28;20102;-87
2021/11/14 11:46:45;;;;;;;49.37;19.10;;;;;;;;;;5032845;28;20013;-87
2021/11/14 11:49:16;;;;;;;44.50;18.45;;;;;;;;;;5034233;28;20278;-87
2021/11/14 11:51:48;;;;;;;46.63;18.15;;;;;;;;;;5033165;28;20021;-87
2021/11/14 11:54:14;;;;;;;44.00;18.37;;;;;;;;;;5025473;28;20037;-87
2021/11/14 11:56:39;;;;;;;40.85;16.75;;;;;;;;;;5032519;28;20820;-87
2021/11/14 11:59:11;;;;;;;45.67;17.13;;;;;;;;;;5033183;28;20056;-87
2021/11/14 12:01:42;;;;;;;41.03;16.67;;;;;;;;;;5032706;28;20484;-87
2021/11/14 12:04:13;;;;;;;42.92;17.83;;;;;;;;;;5033064;28;20048;-87
2021/11/14 12:06:43;;;;;;;44.95;17.92;;;;;;;;;;5032392;28;20060;-88
2021/11/14 12:09:15;;;;;;;50.67;18.50;;;;;;;;;;5033941;28;20025;-87
2021/11/14 12:11:42;;;;;;;50.05;19.38;;;;;;;;;;5032895;28;20017;-87
2021/11/14 12:14:15;;;;;;;46.20;18.45;;;;;;;;;;5033773;28;20024;-87
2021/11/14 12:16:52;;;;;;;44.88;18.13;;;;;;;;;;5032509;28;20032;-87
2021/11/14 12:19:23;;;;;;;50.53;19.45;;;;;;;;;;5032808;28;20013;-87
2021/11/14 12:22:19;;;;;;;57.35;21.90;;;;;;;;;;5033706;28;20361;-86
2021/11/14 12:24:50;;;;;;;54.03;20.88;;;;;;;;;;5017430;28;20037;-87
2021/11/14 12:27:22;;;;;;;54.67;21.45;;;;;;;;;;5033849;28;20440;-87
2021/11/14 12:29:54;;;;;;;54.37;22.33;;;;;;;;;;5032234;28;20040;-87
2021/11/14 12:32:27;;;;;;;57.20;22.65;;;;;;;;;;5032540;28;20056;-87
2021/11/14 12:34:59;;;;;;;58.13;22.00;;;;;;;;;;5032266;28;20028;-87
2021/11/14 12:37:24;;;;;;;55.70;20.35;;;;;;;;;;5033470;28;20092;-87
2021/11/14 12:39:50;;;;;;;50.20;20.08;;;;;;;;;;5018232;28;20059;-87
2021/11/14 12:42:16;;;;;;;47.60;18.25;;;;;;;;;;5032252;28;20132;-87
2021/11/14 12:44:48;;;;;;;39.03;16.20;;;;;;;;;;5032029;28;20477;-87
2021/11/14 12:47:14;;;;;;;;;;;;;;;;;;5032023;28;20060;-87
2021/11/14 12:49:39;;;;;;;47.28;17.38;;;;;;;;;;5033239;28;19967;-87
2021/11/14 12:52:06;;;;;;;43.78;17.20;;;;;;;;;;5033092;28;20029;-87
2021/11/14 12:54:32;;;;;;;48.60;18.70;;;;;;;;;;5031963;28;20045;-87
2021/11/14 12:57:06;;;;;;;42.83;17.73;;;;;;;;;;5032373;28;20013;-87
2021/11/14 12:59:32;;;;;;;50.83;18.38;;;;;;;;;;5031877;28;20558;-87
2021/11/14 13:01:58;;;;;;;51.38;19.60;;;;;;;;;;5031954;28;20219;-87
2021/11/14 13:04:28;;;;;;;50.22;19.58;;;;;;;;;;5032050;28;20473;-86
2021/11/14 13:06:54;;;;;;;48.05;18.02;;;;;;;;;;5032749;28;20053;-87
2021/11/14 13:09:20;;;;;;;50.05;18.10;;;;;;;;;;5030950;28;20068;-87
2021/11/14 13:11:47;;;;;;;45.25;18.63;;;;;;;;;;5031334;28;20017;-87
2021/11/14 13:14:13;;;;;;;51.08;20.27;;;;;;;;;;5031733;28;20067;-87
2021/11/14 13:16:40;;;;;;;54.33;21.15;;;;;;;;;;5031735;28;20017;-87
2021/11/14 13:19:06;;;;;;;49.72;19.77;;;;;;;;;;5033151;28;20035;-87
2021/11/14 13:21:37;;;;;;;53.55;21.55;;;;;;;;;;5031488;28;20060;-87
2021/11/14 13:24:10;;;;;;;53.55;20.50;;;;;;;;;;5023811;28;20026;-86
2021/11/14 13:26:38;;;;;;;57.17;21.75;;;;;;;;;;5031746;28;20108;-87
2021/11/14 13:29:06;;;;;;;61.30;21.85;;;;;;;;;;5031147;28;20491;-86
2021/11/14 13:31:31;;;;;;;53.22;18.85;;;;;;;;;;5032008;28;20106;-86
2021/11/14 13:34:00;;;;;;;56.20;21.60;;;;;;;;;;5024045;28;20021;-86
2021/11/14 13:36:26;;;;;;;52.55;20.83;;;;;;;;;;5031192;28;20045;-87
2021/11/14 13:38:51;;;;;;;54.63;20.92;;;;;;;;;;5031097;28;20071;-86
2021/11/14 13:41:17;;;;;;;55.00;22.10;;;;;;;;;;5031144;28;20022;-85
2021/11/14 13:43:53;;;;;;;56.83;21.58;;;;;;;;;;5032937;28;20075;-89
2021/11/14 13:46:18;;;;;;;57.22;20.73;;;;;;;;;;5031372;28;20503;-86
2021/11/14 13:48:47;;;;;;;49.97;18.75;;;;;;;;;;5032167;28;20026;-86
2021/11/14 13:51:12;;;;;;;57.17;21.48;;;;;;;;;;5032763;28;20104;-87
2021/11/14 13:53:38;;;;;;;51.67;19.38;;;;;;;;;;5029945;28;20534;-84
2021/11/14 13:56:04;;;;;;;49.63;18.58;;;;;;;;;;5028589;28;20043;-87
2021/11/14 13:58:37;;;;;;;54.50;19.25;;;;;;;;;;5027692;28;20022;-85
2021/11/14 14:01:03;;;;;;;59.80;20.73;;;;;;;;;;5031544;28;20033;-85
2021/11/14 14:03:28;;;;;;;43.50;16.42;;;;;;;;;;5031092;28;20022;-88
2021/11/14 14:05:54;;;;;;;46.00;18.42;;;;;;;;;;5031357;28;20018;-85
2021/11/14 14:08:26;;;;;;;47.55;17.70;;;;;;;;;;5031749;28;20029;-87
2021/11/14 14:10:52;;;;;;;44.25;16.52;;;;;;;;;;5060092;28;20030;-88
2021/11/14 14:13:17;;;;;;;54.03;20.45;;;;;;;;;;5027556;28;20374;-87
2021/11/14 14:15:44;;;;;;;55.53;20.55;;;;;;;;;;5060237;28;20017;-87
2021/11/14 14:18:13;;;;;;;52.42;19.30;;;;;;;;;;5031176;28;20453;-86
2021/11/14 14:20:38;;;;;;;54.33;20.48;;;;;;;;;;5065096;28;20025;-86